sensor_id;sensor_type;location;lat;lon;timestamp;P1;durP1;ratioP1;P2;durP2;ratioP2
12792;SDS011;6460;42.684;23.260;2024-03-06T00:02:24;20.40;;;13.67;;
12792;SDS011;6460;42.684;23.260;2024-03-06T00:05:00;20.10;;;13.97;;
12792;SDS011;6460;42.684;23.260;2024-03-06T00:07:29;18.67;;;13.40;;
12792;SDS011;6460;42.684;23.260;2024-03-06T00:10:02;17.97;;;13.73;;
12792;SDS011;6460;42.684;23.260;2024-03-06T00:15:26;19.37;;;13.23;;
12792;SDS011;6460;42.684;23.260;2024-03-06T00:20:45;23.33;;;14.20;;
12792;SDS011;6460;42.684;23.260;2024-03-06T00:23:15;21.23;;;14.27;;
12792;SDS011;6460;42.684;23.260;2024-03-06T00:26:05;21.07;;;14.57;;
12792;SDS011;6460;42.684;23.260;2024-03-06T00:28:40;21.20;;;14.30;;
12792;SDS011;6460;42.684;23.260;2024-03-06T00:31:09;22.43;;;15.13;;
12792;SDS011;6460;42.684;23.260;2024-03-06T00:33:55;23.93;;;15.30;;
12792;SDS011;6460;42.684;23.260;2024-03-06T00:36:28;23.27;;;15.80;;
12792;SDS011;6460;42.684;23.260;2024-03-06T00:38:57;24.63;;;17.57;;
12792;SDS011;6460;42.684;23.260;2024-03-06T00:41:27;23.57;;;16.23;;
12792;SDS011;6460;42.684;23.260;2024-03-06T00:43:58;21.90;;;15.10;;
12792;SDS011;6460;42.684;23.260;2024-03-06T00:46:27;23.30;;;15.80;;
12792;SDS011;6460;42.684;23.260;2024-03-06T00:48:55;23.10;;;16.47;;
12792;SDS011;6460;42.684;23.260;2024-03-06T00:51:26;20.60;;;15.00;;
12792;SDS011;6460;42.684;23.260;2024-03-06T00:54:04;20.80;;;14.97;;
12792;SDS011;6460;42.684;23.260;2024-03-06T00:56:32;22.03;;;14.97;;
12792;SDS011;6460;42.684;23.260;2024-03-06T00:59:13;22.67;;;15.57;;
12792;SDS011;6460;42.684;23.260;2024-03-06T01:01:45;24.00;;;15.67;;
12792;SDS011;6460;42.684;23.260;2024-03-06T01:04:15;25.50;;;16.30;;
12792;SDS011;6460;42.684;23.260;2024-03-06T01:06:52;24.63;;;16.77;;
12792;SDS011;6460;42.684;23.260;2024-03-06T01:09:22;23.17;;;15.37;;
12792;SDS011;6460;42.684;23.260;2024-03-06T01:11:53;24.23;;;16.20;;
12792;SDS011;6460;42.684;23.260;2024-03-06T01:14:25;23.80;;;15.40;;
12792;SDS011;6460;42.684;23.260;2024-03-06T01:17:17;23.80;;;15.57;;
12792;SDS011;6460;42.684;23.260;2024-03-06T01:19:49;21.87;;;15.63;;
12792;SDS011;6460;42.684;23.260;2024-03-06T01:22:18;25.00;;;16.17;;
12792;SDS011;6460;42.684;23.260;2024-03-06T01:24:46;25.07;;;15.70;;
12792;SDS011;6460;42.684;23.260;2024-03-06T01:27:16;24.50;;;17.03;;
12792;SDS011;6460;42.684;23.260;2024-03-06T01:29:46;29.37;;;16.00;;
12792;SDS011;6460;42.684;23.260;2024-03-06T01:32:14;25.00;;;17.07;;
12792;SDS011;6460;42.684;23.260;2024-03-06T01:34:42;27.93;;;18.50;;
12792;SDS011;6460;42.684;23.260;2024-03-06T01:37:11;28.80;;;20.23;;
12792;SDS011;6460;42.684;23.260;2024-03-06T01:39:39;24.63;;;16.00;;
12792;SDS011;6460;42.684;23.260;2024-03-06T01:42:07;24.97;;;16.17;;
12792;SDS011;6460;42.684;23.260;2024-03-06T01:44:36;26.30;;;16.27;;
12792;SDS011;6460;42.684;23.260;2024-03-06T01:47:07;25.27;;;17.30;;
12792;SDS011;6460;42.684;23.260;2024-03-06T01:49:36;25.53;;;16.93;;
12792;SDS011;6460;42.684;23.260;2024-03-06T01:52:05;23.73;;;16.70;;
12792;SDS011;6460;42.684;23.260;2024-03-06T01:54:36;26.07;;;15.93;;
12792;SDS011;6460;42.684;23.260;2024-03-06T01:57:04;23.00;;;15.90;;
12792;SDS011;6460;42.684;23.260;2024-03-06T01:59:35;24.63;;;16.50;;
12792;SDS011;6460;42.684;23.260;2024-03-06T02:02:03;24.10;;;16.17;;
12792;SDS011;6460;42.684;23.260;2024-03-06T02:04:36;26.80;;;16.87;;
12792;SDS011;6460;42.684;23.260;2024-03-06T02:07:05;23.03;;;15.60;;
12792;SDS011;6460;42.684;23.260;2024-03-06T02:09:37;23.43;;;16.10;;
12792;SDS011;6460;42.684;23.260;2024-03-06T02:12:05;22.43;;;15.30;;
12792;SDS011;6460;42.684;23.260;2024-03-06T02:14:34;22.70;;;15.60;;
12792;SDS011;6460;42.684;23.260;2024-03-06T02:17:02;23.90;;;16.07;;
12792;SDS011;6460;42.684;23.260;2024-03-06T02:19:40;23.57;;;14.93;;
12792;SDS011;6460;42.684;23.260;2024-03-06T02:22:10;23.63;;;15.83;;
12792;SDS011;6460;42.684;23.260;2024-03-06T02:24:39;24.03;;;14.83;;
12792;SDS011;6460;42.684;23.260;2024-03-06T02:27:14;23.63;;;15.80;;
12792;SDS011;6460;42.684;23.260;2024-03-06T02:29:42;21.57;;;14.77;;
12792;SDS011;6460;42.684;23.260;2024-03-06T02:32:12;25.93;;;16.30;;
12792;SDS011;6460;42.684;23.260;2024-03-06T02:34:40;26.37;;;16.50;;
12792;SDS011;6460;42.684;23.260;2024-03-06T02:37:07;23.40;;;15.47;;
12792;SDS011;6460;42.684;23.260;2024-03-06T02:39:36;25.20;;;15.57;;
12792;SDS011;6460;42.684;23.260;2024-03-06T02:42:03;24.17;;;16.17;;
12792;SDS011;6460;42.684;23.260;2024-03-06T02:44:32;25.50;;;16.13;;
12792;SDS011;6460;42.684;23.260;2024-03-06T02:47:00;24.60;;;15.97;;
12792;SDS011;6460;42.684;23.260;2024-03-06T02:49:28;25.50;;;16.87;;
12792;SDS011;6460;42.684;23.260;2024-03-06T02:51:55;24.37;;;16.60;;
12792;SDS011;6460;42.684;23.260;2024-03-06T02:54:23;28.17;;;17.97;;
12792;SDS011;6460;42.684;23.260;2024-03-06T02:56:52;28.27;;;17.70;;
12792;SDS011;6460;42.684;23.260;2024-03-06T02:59:22;27.07;;;16.90;;
12792;SDS011;6460;42.684;23.260;2024-03-06T03:01:50;26.27;;;16.07;;
12792;SDS011;6460;42.684;23.260;2024-03-06T03:04:18;25.43;;;15.97;;
12792;SDS011;6460;42.684;23.260;2024-03-06T03:06:45;22.67;;;15.53;;
12792;SDS011;6460;42.684;23.260;2024-03-06T03:09:12;28.20;;;17.30;;
12792;SDS011;6460;42.684;23.260;2024-03-06T03:11:41;24.93;;;17.00;;
12792;SDS011;6460;42.684;23.260;2024-03-06T03:14:12;25.90;;;16.50;;
12792;SDS011;6460;42.684;23.260;2024-03-06T03:16:40;26.57;;;16.80;;
12792;SDS011;6460;42.684;23.260;2024-03-06T03:19:08;28.60;;;17.60;;
12792;SDS011;6460;42.684;23.260;2024-03-06T03:21:35;26.30;;;17.77;;
12792;SDS011;6460;42.684;23.260;2024-03-06T03:24:04;25.57;;;17.23;;
12792;SDS011;6460;42.684;23.260;2024-03-06T03:26:34;26.40;;;17.17;;
12792;SDS011;6460;42.684;23.260;2024-03-06T03:29:02;24.67;;;16.93;;
12792;SDS011;6460;42.684;23.260;2024-03-06T03:31:32;25.33;;;16.97;;
12792;SDS011;6460;42.684;23.260;2024-03-06T03:33:59;25.30;;;17.23;;
12792;SDS011;6460;42.684;23.260;2024-03-06T03:36:28;26.73;;;17.07;;
12792;SDS011;6460;42.684;23.260;2024-03-06T03:38:55;25.17;;;16.03;;
12792;SDS011;6460;42.684;23.260;2024-03-06T03:41:22;26.50;;;17.10;;
12792;SDS011;6460;42.684;23.260;2024-03-06T03:43:51;25.40;;;16.43;;
12792;SDS011;6460;42.684;23.260;2024-03-06T03:46:19;26.33;;;16.80;;
12792;SDS011;6460;42.684;23.260;2024-03-06T03:48:48;25.33;;;16.20;;
12792;SDS011;6460;42.684;23.260;2024-03-06T03:51:16;23.67;;;15.87;;
12792;SDS011;6460;42.684;23.260;2024-03-06T03:53:51;26.43;;;17.27;;
12792;SDS011;6460;42.684;23.260;2024-03-06T03:56:19;27.20;;;16.60;;
12792;SDS011;6460;42.684;23.260;2024-03-06T03:58:47;25.97;;;16.47;;
12792;SDS011;6460;42.684;23.260;2024-03-06T04:01:20;23.70;;;15.83;;
12792;SDS011;6460;42.684;23.260;2024-03-06T04:03:57;24.60;;;15.90;;
12792;SDS011;6460;42.684;23.260;2024-03-06T04:06:28;23.73;;;15.33;;
12792;SDS011;6460;42.684;23.260;2024-03-06T04:09:07;21.90;;;15.33;;
12792;SDS011;6460;42.684;23.260;2024-03-06T04:11:42;28.17;;;16.93;;
12792;SDS011;6460;42.684;23.260;2024-03-06T04:14:13;24.83;;;15.97;;
12792;SDS011;6460;42.684;23.260;2024-03-06T04:19:40;25.20;;;15.03;;
12792;SDS011;6460;42.684;23.260;2024-03-06T04:22:10;26.43;;;16.63;;
12792;SDS011;6460;42.684;23.260;2024-03-06T04:24:41;22.90;;;15.20;;
12792;SDS011;6460;42.684;23.260;2024-03-06T04:27:25;21.23;;;13.33;;
12792;SDS011;6460;42.684;23.260;2024-03-06T04:29:54;18.47;;;12.13;;
12792;SDS011;6460;42.684;23.260;2024-03-06T04:32:23;16.30;;;11.73;;
12792;SDS011;6460;42.684;23.260;2024-03-06T04:34:53;21.37;;;13.73;;
12792;SDS011;6460;42.684;23.260;2024-03-06T04:37:24;21.10;;;12.93;;
12792;SDS011;6460;42.684;23.260;2024-03-06T04:39:55;19.77;;;13.00;;
12792;SDS011;6460;42.684;23.260;2024-03-06T04:42:50;20.47;;;13.20;;
12792;SDS011;6460;42.684;23.260;2024-03-06T04:45:17;18.77;;;12.93;;
12792;SDS011;6460;42.684;23.260;2024-03-06T04:47:45;20.67;;;14.03;;
12792;SDS011;6460;42.684;23.260;2024-03-06T04:50:15;20.70;;;14.10;;
12792;SDS011;6460;42.684;23.260;2024-03-06T04:52:43;21.13;;;14.67;;
12792;SDS011;6460;42.684;23.260;2024-03-06T04:55:11;26.10;;;14.30;;
12792;SDS011;6460;42.684;23.260;2024-03-06T04:57:42;26.87;;;15.47;;
12792;SDS011;6460;42.684;23.260;2024-03-06T05:00:11;22.47;;;13.97;;
12792;SDS011;6460;42.684;23.260;2024-03-06T05:02:39;21.77;;;14.37;;
12792;SDS011;6460;42.684;23.260;2024-03-06T05:05:07;23.27;;;15.40;;
12792;SDS011;6460;42.684;23.260;2024-03-06T05:07:36;20.13;;;14.17;;
12792;SDS011;6460;42.684;23.260;2024-03-06T05:10:05;25.57;;;14.97;;
12792;SDS011;6460;42.684;23.260;2024-03-06T05:12:34;21.90;;;15.00;;
12792;SDS011;6460;42.684;23.260;2024-03-06T05:15:01;24.07;;;15.23;;
12792;SDS011;6460;42.684;23.260;2024-03-06T05:17:30;22.33;;;14.23;;
12792;SDS011;6460;42.684;23.260;2024-03-06T05:19:57;19.30;;;14.03;;
12792;SDS011;6460;42.684;23.260;2024-03-06T05:22:25;22.23;;;14.47;;
12792;SDS011;6460;42.684;23.260;2024-03-06T05:24:54;26.03;;;16.33;;
12792;SDS011;6460;42.684;23.260;2024-03-06T05:27:21;25.80;;;15.67;;
12792;SDS011;6460;42.684;23.260;2024-03-06T05:29:50;22.20;;;16.27;;
12792;SDS011;6460;42.684;23.260;2024-03-06T05:32:20;35.87;;;22.73;;
12792;SDS011;6460;42.684;23.260;2024-03-06T05:34:58;41.83;;;25.77;;
12792;SDS011;6460;42.684;23.260;2024-03-06T05:37:25;42.43;;;28.30;;
12792;SDS011;6460;42.684;23.260;2024-03-06T05:39:56;43.53;;;28.17;;
12792;SDS011;6460;42.684;23.260;2024-03-06T05:42:24;36.07;;;24.63;;
12792;SDS011;6460;42.684;23.260;2024-03-06T05:44:51;38.60;;;25.97;;
12792;SDS011;6460;42.684;23.260;2024-03-06T05:47:20;40.00;;;25.13;;
12792;SDS011;6460;42.684;23.260;2024-03-06T05:49:48;33.53;;;22.30;;
12792;SDS011;6460;42.684;23.260;2024-03-06T05:52:16;34.10;;;22.17;;
12792;SDS011;6460;42.684;23.260;2024-03-06T05:54:43;30.57;;;22.77;;
12792;SDS011;6460;42.684;23.260;2024-03-06T05:57:12;35.60;;;24.10;;
12792;SDS011;6460;42.684;23.260;2024-03-06T05:59:40;43.30;;;24.13;;
12792;SDS011;6460;42.684;23.260;2024-03-06T06:02:07;38.50;;;26.10;;
12792;SDS011;6460;42.684;23.260;2024-03-06T06:04:34;42.93;;;28.23;;
12792;SDS011;6460;42.684;23.260;2024-03-06T06:07:02;46.27;;;29.40;;
12792;SDS011;6460;42.684;23.260;2024-03-06T06:09:29;44.67;;;32.70;;
12792;SDS011;6460;42.684;23.260;2024-03-06T06:11:58;48.50;;;32.53;;
12792;SDS011;6460;42.684;23.260;2024-03-06T06:14:28;49.83;;;33.73;;
12792;SDS011;6460;42.684;23.260;2024-03-06T06:16:55;47.93;;;33.57;;
12792;SDS011;6460;42.684;23.260;2024-03-06T06:19:23;51.20;;;34.83;;
12792;SDS011;6460;42.684;23.260;2024-03-06T06:21:52;50.43;;;32.83;;
12792;SDS011;6460;42.684;23.260;2024-03-06T06:24:21;47.73;;;31.17;;
12792;SDS011;6460;42.684;23.260;2024-03-06T06:26:49;38.37;;;25.00;;
12792;SDS011;6460;42.684;23.260;2024-03-06T06:29:17;33.57;;;23.20;;
12792;SDS011;6460;42.684;23.260;2024-03-06T06:31:47;36.43;;;24.80;;
12792;SDS011;6460;42.684;23.260;2024-03-06T06:34:14;40.33;;;24.20;;
12792;SDS011;6460;42.684;23.260;2024-03-06T06:36:44;33.77;;;24.30;;
12792;SDS011;6460;42.684;23.260;2024-03-06T06:39:13;35.37;;;23.97;;
12792;SDS011;6460;42.684;23.260;2024-03-06T06:41:42;34.27;;;23.57;;
12792;SDS011;6460;42.684;23.260;2024-03-06T06:44:10;38.77;;;23.83;;
12792;SDS011;6460;42.684;23.260;2024-03-06T06:46:38;36.67;;;23.57;;
12792;SDS011;6460;42.684;23.260;2024-03-06T06:49:07;35.00;;;23.30;;
12792;SDS011;6460;42.684;23.260;2024-03-06T06:51:34;34.77;;;23.47;;
12792;SDS011;6460;42.684;23.260;2024-03-06T06:54:02;34.60;;;20.70;;
12792;SDS011;6460;42.684;23.260;2024-03-06T06:56:31;30.13;;;21.03;;
12792;SDS011;6460;42.684;23.260;2024-03-06T06:58:59;32.43;;;20.67;;
12792;SDS011;6460;42.684;23.260;2024-03-06T07:01:27;32.90;;;21.00;;
12792;SDS011;6460;42.684;23.260;2024-03-06T07:03:54;31.00;;;20.83;;
12792;SDS011;6460;42.684;23.260;2024-03-06T07:06:24;33.83;;;21.17;;
12792;SDS011;6460;42.684;23.260;2024-03-06T07:08:54;35.63;;;22.93;;
12792;SDS011;6460;42.684;23.260;2024-03-06T07:11:24;40.53;;;23.50;;
12792;SDS011;6460;42.684;23.260;2024-03-06T07:13:51;36.37;;;21.00;;
12792;SDS011;6460;42.684;23.260;2024-03-06T07:16:18;33.47;;;20.90;;
12792;SDS011;6460;42.684;23.260;2024-03-06T07:18:46;35.57;;;20.50;;
12792;SDS011;6460;42.684;23.260;2024-03-06T07:21:16;27.90;;;18.97;;
12792;SDS011;6460;42.684;23.260;2024-03-06T07:23:46;31.07;;;18.53;;
12792;SDS011;6460;42.684;23.260;2024-03-06T07:26:14;30.80;;;18.87;;
12792;SDS011;6460;42.684;23.260;2024-03-06T07:28:41;32.03;;;19.13;;
12792;SDS011;6460;42.684;23.260;2024-03-06T07:31:08;31.13;;;20.87;;
12792;SDS011;6460;42.684;23.260;2024-03-06T07:33:35;30.80;;;20.33;;
12792;SDS011;6460;42.684;23.260;2024-03-06T07:36:04;32.70;;;22.40;;
12792;SDS011;6460;42.684;23.260;2024-03-06T07:38:32;30.67;;;23.23;;
12792;SDS011;6460;42.684;23.260;2024-03-06T07:41:01;31.97;;;22.57;;
12792;SDS011;6460;42.684;23.260;2024-03-06T07:43:28;38.40;;;24.33;;
12792;SDS011;6460;42.684;23.260;2024-03-06T07:45:58;37.03;;;25.83;;
12792;SDS011;6460;42.684;23.260;2024-03-06T07:48:36;35.43;;;23.37;;
12792;SDS011;6460;42.684;23.260;2024-03-06T07:51:03;31.33;;;21.03;;
12792;SDS011;6460;42.684;23.260;2024-03-06T07:53:31;31.20;;;22.27;;
12792;SDS011;6460;42.684;23.260;2024-03-06T07:55:58;28.10;;;20.50;;
12792;SDS011;6460;42.684;23.260;2024-03-06T07:58:27;29.43;;;20.70;;
12792;SDS011;6460;42.684;23.260;2024-03-06T08:00:54;31.70;;;20.97;;
12792;SDS011;6460;42.684;23.260;2024-03-06T08:03:22;33.00;;;21.97;;
12792;SDS011;6460;42.684;23.260;2024-03-06T08:05:50;30.80;;;22.67;;
12792;SDS011;6460;42.684;23.260;2024-03-06T08:08:19;36.50;;;22.57;;
12792;SDS011;6460;42.684;23.260;2024-03-06T08:10:47;32.13;;;21.90;;
12792;SDS011;6460;42.684;23.260;2024-03-06T08:13:15;33.00;;;23.50;;
12792;SDS011;6460;42.684;23.260;2024-03-06T08:15:45;36.77;;;25.03;;
12792;SDS011;6460;42.684;23.260;2024-03-06T08:18:13;34.03;;;23.57;;
12792;SDS011;6460;42.684;23.260;2024-03-06T08:20:40;39.83;;;24.13;;
12792;SDS011;6460;42.684;23.260;2024-03-06T08:23:08;32.40;;;21.67;;
12792;SDS011;6460;42.684;23.260;2024-03-06T08:25:36;34.23;;;23.13;;
12792;SDS011;6460;42.684;23.260;2024-03-06T08:28:06;29.80;;;21.00;;
12792;SDS011;6460;42.684;23.260;2024-03-06T08:30:35;30.27;;;20.83;;
12792;SDS011;6460;42.684;23.260;2024-03-06T08:33:04;34.00;;;21.60;;
12792;SDS011;6460;42.684;23.260;2024-03-06T08:35:31;31.13;;;22.00;;
12792;SDS011;6460;42.684;23.260;2024-03-06T08:37:59;31.53;;;21.77;;
12792;SDS011;6460;42.684;23.260;2024-03-06T08:40:26;31.40;;;22.73;;
12792;SDS011;6460;42.684;23.260;2024-03-06T08:42:54;35.03;;;21.87;;
12792;SDS011;6460;42.684;23.260;2024-03-06T08:45:21;35.10;;;22.10;;
12792;SDS011;6460;42.684;23.260;2024-03-06T08:47:49;31.70;;;22.57;;
12792;SDS011;6460;42.684;23.260;2024-03-06T08:50:20;37.53;;;21.97;;
12792;SDS011;6460;42.684;23.260;2024-03-06T08:52:48;34.87;;;22.07;;
12792;SDS011;6460;42.684;23.260;2024-03-06T08:55:15;27.07;;;20.30;;
12792;SDS011;6460;42.684;23.260;2024-03-06T08:57:42;28.77;;;20.20;;
12792;SDS011;6460;42.684;23.260;2024-03-06T09:00:10;30.57;;;20.20;;
12792;SDS011;6460;42.684;23.260;2024-03-06T09:02:39;32.03;;;20.47;;
12792;SDS011;6460;42.684;23.260;2024-03-06T09:05:07;32.90;;;23.17;;
12792;SDS011;6460;42.684;23.260;2024-03-06T09:07:38;34.37;;;21.87;;
12792;SDS011;6460;42.684;23.260;2024-03-06T09:10:06;35.40;;;24.53;;
12792;SDS011;6460;42.684;23.260;2024-03-06T09:12:35;29.40;;;21.17;;
12792;SDS011;6460;42.684;23.260;2024-03-06T09:15:03;27.30;;;20.97;;
12792;SDS011;6460;42.684;23.260;2024-03-06T09:17:34;27.27;;;19.13;;
12792;SDS011;6460;42.684;23.260;2024-03-06T09:20:01;27.70;;;19.27;;
12792;SDS011;6460;42.684;23.260;2024-03-06T09:22:35;28.10;;;17.60;;
12792;SDS011;6460;42.684;23.260;2024-03-06T09:25:06;28.60;;;19.10;;
12792;SDS011;6460;42.684;23.260;2024-03-06T09:27:34;24.40;;;16.87;;
12792;SDS011;6460;42.684;23.260;2024-03-06T09:30:01;24.03;;;18.20;;
12792;SDS011;6460;42.684;23.260;2024-03-06T09:32:29;25.77;;;18.53;;
12792;SDS011;6460;42.684;23.260;2024-03-06T09:34:57;24.70;;;18.17;;
12792;SDS011;6460;42.684;23.260;2024-03-06T09:37:25;23.50;;;17.17;;
12792;SDS011;6460;42.684;23.260;2024-03-06T09:39:55;27.63;;;18.67;;
12792;SDS011;6460;42.684;23.260;2024-03-06T09:42:22;24.67;;;18.57;;
12792;SDS011;6460;42.684;23.260;2024-03-06T09:44:50;20.47;;;15.20;;
12792;SDS011;6460;42.684;23.260;2024-03-06T09:47:19;20.70;;;14.77;;
12792;SDS011;6460;42.684;23.260;2024-03-06T09:49:50;24.33;;;16.30;;
12792;SDS011;6460;42.684;23.260;2024-03-06T09:52:19;23.13;;;16.40;;
12792;SDS011;6460;42.684;23.260;2024-03-06T09:54:47;24.50;;;16.50;;
12792;SDS011;6460;42.684;23.260;2024-03-06T09:57:18;22.97;;;15.03;;
12792;SDS011;6460;42.684;23.260;2024-03-06T09:59:45;18.77;;;13.70;;
12792;SDS011;6460;42.684;23.260;2024-03-06T10:02:30;18.20;;;14.13;;
12792;SDS011;6460;42.684;23.260;2024-03-06T10:05:01;18.43;;;11.00;;
12792;SDS011;6460;42.684;23.260;2024-03-06T10:07:30;12.87;;;9.30;;
12792;SDS011;6460;42.684;23.260;2024-03-06T10:10:00;11.57;;;8.33;;
12792;SDS011;6460;42.684;23.260;2024-03-06T10:12:29;11.27;;;8.37;;
12792;SDS011;6460;42.684;23.260;2024-03-06T10:14:56;11.70;;;8.03;;
12792;SDS011;6460;42.684;23.260;2024-03-06T10:17:24;11.80;;;7.63;;
12792;SDS011;6460;42.684;23.260;2024-03-06T10:19:52;10.57;;;7.73;;
12792;SDS011;6460;42.684;23.260;2024-03-06T10:22:19;9.93;;;8.13;;
12792;SDS011;6460;42.684;23.260;2024-03-06T10:24:49;11.97;;;7.90;;
12792;SDS011;6460;42.684;23.260;2024-03-06T10:27:17;12.03;;;8.00;;
12792;SDS011;6460;42.684;23.260;2024-03-06T10:30:00;10.50;;;8.57;;
12792;SDS011;6460;42.684;23.260;2024-03-06T10:32:28;9.23;;;7.63;;
12792;SDS011;6460;42.684;23.260;2024-03-06T10:34:58;10.50;;;7.60;;
12792;SDS011;6460;42.684;23.260;2024-03-06T10:37:25;13.40;;;7.97;;
12792;SDS011;6460;42.684;23.260;2024-03-06T10:39:52;11.10;;;7.80;;
12792;SDS011;6460;42.684;23.260;2024-03-06T10:42:24;10.17;;;7.90;;
12792;SDS011;6460;42.684;23.260;2024-03-06T10:44:58;10.27;;;8.20;;
12792;SDS011;6460;42.684;23.260;2024-03-06T10:47:28;10.90;;;8.33;;
12792;SDS011;6460;42.684;23.260;2024-03-06T10:49:58;10.97;;;8.53;;
12792;SDS011;6460;42.684;23.260;2024-03-06T10:52:30;9.53;;;8.03;;
12792;SDS011;6460;42.684;23.260;2024-03-06T10:55:00;11.20;;;7.90;;
12792;SDS011;6460;42.684;23.260;2024-03-06T10:57:30;11.13;;;8.13;;
12792;SDS011;6460;42.684;23.260;2024-03-06T11:00:00;12.23;;;8.30;;
12792;SDS011;6460;42.684;23.260;2024-03-06T11:02:30;10.67;;;7.70;;
12792;SDS011;6460;42.684;23.260;2024-03-06T11:04:59;9.53;;;7.03;;
12792;SDS011;6460;42.684;23.260;2024-03-06T11:07:30;9.70;;;7.30;;
12792;SDS011;6460;42.684;23.260;2024-03-06T11:09:58;11.23;;;8.53;;
12792;SDS011;6460;42.684;23.260;2024-03-06T11:12:32;10.90;;;8.63;;
12792;SDS011;6460;42.684;23.260;2024-03-06T11:15:15;11.90;;;7.77;;
12792;SDS011;6460;42.684;23.260;2024-03-06T11:17:42;13.20;;;8.00;;
12792;SDS011;6460;42.684;23.260;2024-03-06T11:20:14;13.47;;;8.20;;
12792;SDS011;6460;42.684;23.260;2024-03-06T11:23:07;10.60;;;8.27;;
12792;SDS011;6460;42.684;23.260;2024-03-06T11:28:29;13.97;;;7.73;;
12792;SDS011;6460;42.684;23.260;2024-03-06T11:31:00;15.40;;;8.33;;
12792;SDS011;6460;42.684;23.260;2024-03-06T11:33:34;12.73;;;7.70;;
12792;SDS011;6460;42.684;23.260;2024-03-06T11:36:14;12.93;;;6.90;;
12792;SDS011;6460;42.684;23.260;2024-03-06T11:38:47;10.23;;;7.23;;
12792;SDS011;6460;42.684;23.260;2024-03-06T11:41:20;7.20;;;6.50;;
12792;SDS011;6460;42.684;23.260;2024-03-06T11:43:50;9.63;;;7.47;;
12792;SDS011;6460;42.684;23.260;2024-03-06T11:46:20;7.13;;;6.30;;
12792;SDS011;6460;42.684;23.260;2024-03-06T11:48:52;9.53;;;6.97;;
12792;SDS011;6460;42.684;23.260;2024-03-06T11:51:21;9.73;;;6.77;;
12792;SDS011;6460;42.684;23.260;2024-03-06T11:53:50;13.20;;;7.20;;
12792;SDS011;6460;42.684;23.260;2024-03-06T11:56:19;9.77;;;6.30;;
12792;SDS011;6460;42.684;23.260;2024-03-06T11:58:47;11.47;;;6.93;;
12792;SDS011;6460;42.684;23.260;2024-03-06T12:01:15;7.90;;;6.67;;
12792;SDS011;6460;42.684;23.260;2024-03-06T12:03:45;11.93;;;7.60;;
12792;SDS011;6460;42.684;23.260;2024-03-06T12:06:15;9.13;;;7.40;;
12792;SDS011;6460;42.684;23.260;2024-03-06T12:08:44;9.27;;;6.73;;
12792;SDS011;6460;42.684;23.260;2024-03-06T12:11:12;10.27;;;7.37;;
12792;SDS011;6460;42.684;23.260;2024-03-06T12:13:41;7.80;;;7.00;;
12792;SDS011;6460;42.684;23.260;2024-03-06T12:16:08;10.77;;;7.17;;
12792;SDS011;6460;42.684;23.260;2024-03-06T12:18:37;8.40;;;7.13;;
12792;SDS011;6460;42.684;23.260;2024-03-06T12:21:06;10.93;;;6.67;;
12792;SDS011;6460;42.684;23.260;2024-03-06T12:23:33;10.07;;;7.43;;
12792;SDS011;6460;42.684;23.260;2024-03-06T12:26:04;9.97;;;7.37;;
12792;SDS011;6460;42.684;23.260;2024-03-06T12:28:33;9.67;;;7.47;;
12792;SDS011;6460;42.684;23.260;2024-03-06T12:31:01;9.70;;;7.27;;
12792;SDS011;6460;42.684;23.260;2024-03-06T12:33:32;10.03;;;6.47;;
12792;SDS011;6460;42.684;23.260;2024-03-06T12:36:02;7.63;;;6.23;;
12792;SDS011;6460;42.684;23.260;2024-03-06T12:38:33;9.33;;;6.13;;
12792;SDS011;6460;42.684;23.260;2024-03-06T12:41:00;9.70;;;6.00;;
12792;SDS011;6460;42.684;23.260;2024-03-06T12:43:29;6.40;;;5.73;;
12792;SDS011;6460;42.684;23.260;2024-03-06T12:45:56;7.53;;;6.73;;
12792;SDS011;6460;42.684;23.260;2024-03-06T12:48:24;10.93;;;7.00;;
12792;SDS011;6460;42.684;23.260;2024-03-06T12:50:51;20.30;;;8.43;;
12792;SDS011;6460;42.684;23.260;2024-03-06T12:53:20;13.97;;;7.80;;
12792;SDS011;6460;42.684;23.260;2024-03-06T12:55:48;12.53;;;7.63;;
12792;SDS011;6460;42.684;23.260;2024-03-06T12:58:16;9.17;;;7.30;;
12792;SDS011;6460;42.684;23.260;2024-03-06T13:00:44;9.57;;;7.07;;
12792;SDS011;6460;42.684;23.260;2024-03-06T13:03:11;10.63;;;6.83;;
12792;SDS011;6460;42.684;23.260;2024-03-06T13:05:38;9.03;;;6.13;;
12792;SDS011;6460;42.684;23.260;2024-03-06T13:08:06;8.60;;;5.80;;
12792;SDS011;6460;42.684;23.260;2024-03-06T13:10:33;9.13;;;6.27;;
12792;SDS011;6460;42.684;23.260;2024-03-06T13:13:03;9.93;;;6.73;;
12792;SDS011;6460;42.684;23.260;2024-03-06T13:15:32;10.73;;;6.93;;
12792;SDS011;6460;42.684;23.260;2024-03-06T13:18:06;7.70;;;4.53;;
12792;SDS011;6460;42.684;23.260;2024-03-06T13:20:34;5.57;;;4.80;;
12792;SDS011;6460;42.684;23.260;2024-03-06T13:23:02;7.30;;;5.23;;
12792;SDS011;6460;42.684;23.260;2024-03-06T13:25:31;7.33;;;5.07;;
12792;SDS011;6460;42.684;23.260;2024-03-06T13:27:59;8.83;;;5.27;;
12792;SDS011;6460;42.684;23.260;2024-03-06T13:30:28;6.37;;;4.77;;
12792;SDS011;6460;42.684;23.260;2024-03-06T13:32:55;5.80;;;4.73;;
12792;SDS011;6460;42.684;23.260;2024-03-06T13:35:23;7.07;;;5.03;;
12792;SDS011;6460;42.684;23.260;2024-03-06T13:37:51;6.53;;;5.17;;
12792;SDS011;6460;42.684;23.260;2024-03-06T13:40:19;6.57;;;5.90;;
12792;SDS011;6460;42.684;23.260;2024-03-06T13:42:46;7.13;;;5.37;;
12792;SDS011;6460;42.684;23.260;2024-03-06T13:45:14;5.60;;;5.10;;
12792;SDS011;6460;42.684;23.260;2024-03-06T13:47:43;7.47;;;5.70;;
12792;SDS011;6460;42.684;23.260;2024-03-06T13:50:11;7.17;;;5.40;;
12792;SDS011;6460;42.684;23.260;2024-03-06T13:52:40;6.73;;;5.07;;
12792;SDS011;6460;42.684;23.260;2024-03-06T13:55:08;7.33;;;5.60;;
12792;SDS011;6460;42.684;23.260;2024-03-06T13:57:38;6.47;;;5.40;;
12792;SDS011;6460;42.684;23.260;2024-03-06T14:00:07;7.20;;;5.03;;
12792;SDS011;6460;42.684;23.260;2024-03-06T14:02:44;6.17;;;5.57;;
12792;SDS011;6460;42.684;23.260;2024-03-06T14:05:12;7.63;;;5.37;;
12792;SDS011;6460;42.684;23.260;2024-03-06T14:07:40;8.30;;;5.80;;
12792;SDS011;6460;42.684;23.260;2024-03-06T14:10:07;7.93;;;5.90;;
12792;SDS011;6460;42.684;23.260;2024-03-06T14:12:35;7.03;;;5.97;;
12792;SDS011;6460;42.684;23.260;2024-03-06T14:15:04;6.17;;;5.57;;
12792;SDS011;6460;42.684;23.260;2024-03-06T14:17:34;6.10;;;5.37;;
12792;SDS011;6460;42.684;23.260;2024-03-06T14:20:03;9.73;;;5.97;;
12792;SDS011;6460;42.684;23.260;2024-03-06T14:22:31;7.83;;;5.60;;
12792;SDS011;6460;42.684;23.260;2024-03-06T14:24:58;8.80;;;6.00;;
12792;SDS011;6460;42.684;23.260;2024-03-06T14:27:26;7.90;;;6.00;;
12792;SDS011;6460;42.684;23.260;2024-03-06T14:29:53;6.83;;;5.70;;
12792;SDS011;6460;42.684;23.260;2024-03-06T14:32:20;9.40;;;6.63;;
12792;SDS011;6460;42.684;23.260;2024-03-06T14:34:48;9.10;;;6.27;;
12792;SDS011;6460;42.684;23.260;2024-03-06T14:37:17;9.37;;;6.90;;
12792;SDS011;6460;42.684;23.260;2024-03-06T14:39:44;10.00;;;6.47;;
12792;SDS011;6460;42.684;23.260;2024-03-06T14:42:12;9.13;;;6.13;;
12792;SDS011;6460;42.684;23.260;2024-03-06T14:44:40;8.50;;;7.23;;
12792;SDS011;6460;42.684;23.260;2024-03-06T14:47:10;7.90;;;7.10;;
12792;SDS011;6460;42.684;23.260;2024-03-06T14:49:37;11.47;;;7.63;;
12792;SDS011;6460;42.684;23.260;2024-03-06T14:52:05;8.40;;;7.30;;
12792;SDS011;6460;42.684;23.260;2024-03-06T14:54:34;9.30;;;7.30;;